sensor_id;sensor_type;location;lat;lon;timestamp;pressure;altitude;pressure_sealevel;temperature
20289;BMP180;10303;51.960;8.372;2023-03-11T00:00:22;99115.00;;;3.60
20289;BMP180;10303;51.960;8.372;2023-03-11T00:02:51;99120.00;;;3.60
20289;BMP180;10303;51.960;8.372;2023-03-11T00:07:48;99124.00;;;3.70
20289;BMP180;10303;51.960;8.372;2023-03-11T00:10:30;99132.00;;;3.70
20289;BMP180;10303;51.960;8.372;2023-03-11T00:12:58;99149.00;;;3.60
20289;BMP180;10303;51.960;8.372;2023-03-11T00:15:26;99147.00;;;3.60
20289;BMP180;10303;51.960;8.372;2023-03-11T00:17:53;99143.00;;;3.60
20289;BMP180;10303;51.960;8.372;2023-03-11T00:20:25;99149.00;;;3.60
20289;BMP180;10303;51.960;8.372;2023-03-11T00:22:52;99149.00;;;3.60
20289;BMP180;10303;51.960;8.372;2023-03-11T00:25:22;99163.00;;;3.60
20289;BMP180;10303;51.960;8.372;2023-03-11T00:27:49;99174.00;;;3.60
20289;BMP180;10303;51.960;8.372;2023-03-11T00:30:16;99173.00;;;3.60
20289;BMP180;10303;51.960;8.372;2023-03-11T00:32:42;99175.00;;;3.60
20289;BMP180;10303;51.960;8.372;2023-03-11T00:35:16;99174.00;;;3.60
20289;BMP180;10303;51.960;8.372;2023-03-11T00:37:44;99194.00;;;3.60
20289;BMP180;10303;51.960;8.372;2023-03-11T00:40:17;99194.00;;;3.50
20289;BMP180;10303;51.960;8.372;2023-03-11T00:42:44;99197.00;;;3.60
20289;BMP180;10303;51.960;8.372;2023-03-11T00:45:11;99208.00;;;3.60
20289;BMP180;10303;51.960;8.372;2023-03-11T00:47:37;99208.00;;;3.70
20289;BMP180;10303;51.960;8.372;2023-03-11T00:50:05;99219.00;;;3.70
20289;BMP180;10303;51.960;8.372;2023-03-11T00:52:31;99225.00;;;3.70
20289;BMP180;10303;51.960;8.372;2023-03-11T00:54:58;99232.00;;;3.80
20289;BMP180;10303;51.960;8.372;2023-03-11T00:57:24;99227.00;;;3.70
20289;BMP180;10303;51.960;8.372;2023-03-11T00:59:54;99227.00;;;3.70
20289;BMP180;10303;51.960;8.372;2023-03-11T01:02:21;99250.00;;;3.80
20289;BMP180;10303;51.960;8.372;2023-03-11T01:04:52;99243.00;;;3.80
20289;BMP180;10303;51.960;8.372;2023-03-11T01:07:18;99236.00;;;3.80
20289;BMP180;10303;51.960;8.372;2023-03-11T01:09:44;99253.00;;;3.80
20289;BMP180;10303;51.960;8.372;2023-03-11T01:12:10;99251.00;;;3.70
20289;BMP180;10303;51.960;8.372;2023-03-11T01:14:36;99251.00;;;3.70
20289;BMP180;10303;51.960;8.372;2023-03-11T01:17:01;99262.00;;;3.70
20289;BMP180;10303;51.960;8.372;2023-03-11T01:19:27;99258.00;;;3.70
20289;BMP180;10303;51.960;8.372;2023-03-11T01:21:53;99255.00;;;3.80
20289;BMP180;10303;51.960;8.372;2023-03-11T01:24:19;99263.00;;;3.70
20289;BMP180;10303;51.960;8.372;2023-03-11T01:26:45;99265.00;;;3.80
20289;BMP180;10303;51.960;8.372;2023-03-11T01:29:11;99282.00;;;3.70
20289;BMP180;10303;51.960;8.372;2023-03-11T01:31:37;99282.00;;;3.70
20289;BMP180;10303;51.960;8.372;2023-03-11T01:34:03;99292.00;;;3.70
20289;BMP180;10303;51.960;8.372;2023-03-11T01:36:28;99284.00;;;3.70
20289;BMP180;10303;51.960;8.372;2023-03-11T01:38:54;99282.00;;;3.80
20289;BMP180;10303;51.960;8.372;2023-03-11T01:41:20;99285.00;;;3.80
20289;BMP180;10303;51.960;8.372;2023-03-11T01:43:51;99289.00;;;3.70
20289;BMP180;10303;51.960;8.372;2023-03-11T01:49:21;99293.00;;;3.60
20289;BMP180;10303;51.960;8.372;2023-03-11T01:51:51;99293.00;;;3.60
20289;BMP180;10303;51.960;8.372;2023-03-11T01:54:26;99296.00;;;3.60
20289;BMP180;10303;51.960;8.372;2023-03-11T01:56:54;99306.00;;;3.60
20289;BMP180;10303;51.960;8.372;2023-03-11T01:59:26;99305.00;;;3.60
20289;BMP180;10303;51.960;8.372;2023-03-11T02:02:28;99311.00;;;3.60
20289;BMP180;10303;51.960;8.372;2023-03-11T02:04:58;99311.00;;;3.50
20289;BMP180;10303;51.960;8.372;2023-03-11T02:07:25;99317.00;;;3.50
20289;BMP180;10303;51.960;8.372;2023-03-11T02:09:51;99297.00;;;3.50
20289;BMP180;10303;51.960;8.372;2023-03-11T02:12:18;99317.00;;;3.50
20289;BMP180;10303;51.960;8.372;2023-03-11T02:14:48;99320.00;;;3.50
20289;BMP180;10303;51.960;8.372;2023-03-11T02:17:15;99317.00;;;3.60
20289;BMP180;10303;51.960;8.372;2023-03-11T02:22:32;99319.00;;;3.60
20289;BMP180;10303;51.960;8.372;2023-03-11T02:25:39;99323.00;;;3.60
20289;BMP180;10303;51.960;8.372;2023-03-11T02:28:12;99331.00;;;3.60
20289;BMP180;10303;51.960;8.372;2023-03-11T02:30:42;99323.00;;;3.70
20289;BMP180;10303;51.960;8.372;2023-03-11T02:33:10;99324.00;;;3.60
20289;BMP180;10303;51.960;8.372;2023-03-11T02:35:37;99332.00;;;3.60
20289;BMP180;10303;51.960;8.372;2023-03-11T02:38:03;99325.00;;;3.70
20289;BMP180;10303;51.960;8.372;2023-03-11T02:43:24;99328.00;;;3.60
20289;BMP180;10303;51.960;8.372;2023-03-11T02:45:51;99330.00;;;3.70
20289;BMP180;10303;51.960;8.372;2023-03-11T02:48:20;99338.00;;;3.70
20289;BMP180;10303;51.960;8.372;2023-03-11T02:50:46;99331.00;;;3.70
20289;BMP180;10303;51.960;8.372;2023-03-11T02:53:14;99344.00;;;3.70
20289;BMP180;10303;51.960;8.372;2023-03-11T02:55:40;99333.00;;;3.70
20289;BMP180;10303;51.960;8.372;2023-03-11T02:58:07;99347.00;;;3.70
20289;BMP180;10303;51.960;8.372;2023-03-11T03:00:33;99345.00;;;3.70
20289;BMP180;10303;51.960;8.372;2023-03-11T03:03:04;99350.00;;;3.70
20289;BMP180;10303;51.960;8.372;2023-03-11T03:05:30;99347.00;;;3.70
20289;BMP180;10303;51.960;8.372;2023-03-11T03:07:57;99354.00;;;3.70
20289;BMP180;10303;51.960;8.372;2023-03-11T03:10:23;99353.00;;;3.70
20289;BMP180;10303;51.960;8.372;2023-03-11T03:12:50;99361.00;;;3.70
20289;BMP180;10303;51.960;8.372;2023-03-11T03:15:16;99360.00;;;3.70
20289;BMP180;10303;51.960;8.372;2023-03-11T03:17:43;99363.00;;;3.60
20289;BMP180;10303;51.960;8.372;2023-03-11T03:20:10;99361.00;;;3.70
20289;BMP180;10303;51.960;8.372;2023-03-11T03:22:41;99374.00;;;3.60
20289;BMP180;10303;51.960;8.372;2023-03-11T03:25:09;99375.00;;;3.60
20289;BMP180;10303;51.960;8.372;2023-03-11T03:27:36;99385.00;;;3.60
20289;BMP180;10303;51.960;8.372;2023-03-11T03:30:06;99386.00;;;3.60
20289;BMP180;10303;51.960;8.372;2023-03-11T03:32:32;99394.00;;;3.60
20289;BMP180;10303;51.960;8.372;2023-03-11T03:35:01;99387.00;;;3.60
20289;BMP180;10303;51.960;8.372;2023-03-11T03:37:42;99394.00;;;3.60
20289;BMP180;10303;51.960;8.372;2023-03-11T03:40:10;99389.00;;;3.60
20289;BMP180;10303;51.960;8.372;2023-03-11T03:42:36;99400.00;;;3.60
20289;BMP180;10303;51.960;8.372;2023-03-11T03:45:05;99401.00;;;3.60
20289;BMP180;10303;51.960;8.372;2023-03-11T03:47:34;99414.00;;;3.60
20289;BMP180;10303;51.960;8.372;2023-03-11T03:50:03;99399.00;;;3.60
20289;BMP180;10303;51.960;8.372;2023-03-11T03:52:29;99416.00;;;3.60
20289;BMP180;10303;51.960;8.372;2023-03-11T03:54:55;99419.00;;;3.60
20289;BMP180;10303;51.960;8.372;2023-03-11T03:57:21;99422.00;;;3.60
20289;BMP180;10303;51.960;8.372;2023-03-11T03:59:47;99419.00;;;3.60
20289;BMP180;10303;51.960;8.372;2023-03-11T04:02:13;99428.00;;;3.60
20289;BMP180;10303;51.960;8.372;2023-03-11T04:04:39;99427.00;;;3.60
20289;BMP180;10303;51.960;8.372;2023-03-11T04:07:07;99428.00;;;3.50
20289;BMP180;10303;51.960;8.372;2023-03-11T04:09:34;99438.00;;;3.50
20289;BMP180;10303;51.960;8.372;2023-03-11T04:12:03;99428.00;;;3.50
20289;BMP180;10303;51.960;8.372;2023-03-11T04:14:32;99433.00;;;3.60
20289;BMP180;10303;51.960;8.372;2023-03-11T04:16:59;99448.00;;;3.60
20289;BMP180;10303;51.960;8.372;2023-03-11T04:19:26;99447.00;;;3.60
20289;BMP180;10303;51.960;8.372;2023-03-11T04:21:52;99451.00;;;3.60
20289;BMP180;10303;51.960;8.372;2023-03-11T04:24:20;99445.00;;;3.50
20289;BMP180;10303;51.960;8.372;2023-03-11T04:26:46;99464.00;;;3.50
20289;BMP180;10303;51.960;8.372;2023-03-11T04:29:15;99465.00;;;3.50
20289;BMP180;10303;51.960;8.372;2023-03-11T04:31:47;99472.00;;;3.50
20289;BMP180;10303;51.960;8.372;2023-03-11T04:34:13;99481.00;;;3.50
20289;BMP180;10303;51.960;8.372;2023-03-11T04:36:40;99469.00;;;3.40
20289;BMP180;10303;51.960;8.372;2023-03-11T04:39:06;99481.00;;;3.40
20289;BMP180;10303;51.960;8.372;2023-03-11T04:41:37;99471.00;;;3.40
20289;BMP180;10303;51.960;8.372;2023-03-11T04:44:05;99484.00;;;3.40
20289;BMP180;10303;51.960;8.372;2023-03-11T04:46:31;99491.00;;;3.40
20289;BMP180;10303;51.960;8.372;2023-03-11T04:48:58;99492.00;;;3.50
20289;BMP180;10303;51.960;8.372;2023-03-11T04:51:25;99502.00;;;3.50
20289;BMP180;10303;51.960;8.372;2023-03-11T04:53:51;99488.00;;;3.40
20289;BMP180;10303;51.960;8.372;2023-03-11T04:56:17;99494.00;;;3.30
20289;BMP180;10303;51.960;8.372;2023-03-11T04:58:43;99498.00;;;3.30
20289;BMP180;10303;51.960;8.372;2023-03-11T05:01:09;99496.00;;;3.30
20289;BMP180;10303;51.960;8.372;2023-03-11T05:03:35;99502.00;;;3.30
20289;BMP180;10303;51.960;8.372;2023-03-11T05:06:01;99495.00;;;3.30
20289;BMP180;10303;51.960;8.372;2023-03-11T05:08:27;99496.00;;;3.40
20289;BMP180;10303;51.960;8.372;2023-03-11T05:10:53;99512.00;;;3.30
20289;BMP180;10303;51.960;8.372;2023-03-11T05:13:20;99508.00;;;3.30
20289;BMP180;10303;51.960;8.372;2023-03-11T05:15:47;99510.00;;;3.40
20289;BMP180;10303;51.960;8.372;2023-03-11T05:18:14;99515.00;;;3.40
20289;BMP180;10303;51.960;8.372;2023-03-11T05:20:41;99519.00;;;3.40
20289;BMP180;10303;51.960;8.372;2023-03-11T05:23:09;99517.00;;;3.40
20289;BMP180;10303;51.960;8.372;2023-03-11T05:25:36;99534.00;;;3.40
20289;BMP180;10303;51.960;8.372;2023-03-11T05:28:03;99534.00;;;3.40
20289;BMP180;10303;51.960;8.372;2023-03-11T05:30:31;99527.00;;;3.50
20289;BMP180;10303;51.960;8.372;2023-03-11T05:32:57;99531.00;;;3.50
20289;BMP180;10303;51.960;8.372;2023-03-11T05:35:24;99526.00;;;3.50
20289;BMP180;10303;51.960;8.372;2023-03-11T05:37:51;99537.00;;;3.50
20289;BMP180;10303;51.960;8.372;2023-03-11T05:40:19;99541.00;;;3.50
20289;BMP180;10303;51.960;8.372;2023-03-11T05:42:46;99539.00;;;3.40
20289;BMP180;10303;51.960;8.372;2023-03-11T05:45:14;99541.00;;;3.40
20289;BMP180;10303;51.960;8.372;2023-03-11T05:47:42;99552.00;;;3.40
20289;BMP180;10303;51.960;8.372;2023-03-11T05:50:11;99560.00;;;3.30
20289;BMP180;10303;51.960;8.372;2023-03-11T05:52:38;99550.00;;;3.30
20289;BMP180;10303;51.960;8.372;2023-03-11T05:55:05;99549.00;;;3.30
20289;BMP180;10303;51.960;8.372;2023-03-11T05:57:32;99553.00;;;3.30
20289;BMP180;10303;51.960;8.372;2023-03-11T05:59:59;99566.00;;;3.30
20289;BMP180;10303;51.960;8.372;2023-03-11T06:02:24;99562.00;;;3.30
20289;BMP180;10303;51.960;8.372;2023-03-11T06:04:53;99564.00;;;3.20
20289;BMP180;10303;51.960;8.372;2023-03-11T06:07:19;99563.00;;;3.20
20289;BMP180;10303;51.960;8.372;2023-03-11T06:09:49;99576.00;;;3.10
20289;BMP180;10303;51.960;8.372;2023-03-11T06:12:17;99574.00;;;3.10
20289;BMP180;10303;51.960;8.372;2023-03-11T06:14:54;99578.00;;;3.10
20289;BMP180;10303;51.960;8.372;2023-03-11T06:17:20;99583.00;;;3.10
20289;BMP180;10303;51.960;8.372;2023-03-11T06:19:46;99580.00;;;3.10
20289;BMP180;10303;51.960;8.372;2023-03-11T06:22:12;99588.00;;;3.10
20289;BMP180;10303;51.960;8.372;2023-03-11T06:24:38;99589.00;;;3.10
20289;BMP180;10303;51.960;8.372;2023-03-11T06:27:05;99599.00;;;3.10
20289;BMP180;10303;51.960;8.372;2023-03-11T06:29:35;99608.00;;;3.20
20289;BMP180;10303;51.960;8.372;2023-03-11T06:32:02;99616.00;;;3.20
20289;BMP180;10303;51.960;8.372;2023-03-11T06:34:28;99616.00;;;3.30
20289;BMP180;10303;51.960;8.372;2023-03-11T06:36:54;99606.00;;;3.30
20289;BMP180;10303;51.960;8.372;2023-03-11T06:39:23;99605.00;;;3.30
20289;BMP180;10303;51.960;8.372;2023-03-11T06:41:51;99603.00;;;3.40
20289;BMP180;10303;51.960;8.372;2023-03-11T06:44:17;99612.00;;;3.40
20289;BMP180;10303;51.960;8.372;2023-03-11T06:46:43;99619.00;;;3.40
20289;BMP180;10303;51.960;8.372;2023-03-11T06:49:09;99627.00;;;3.50
20289;BMP180;10303;51.960;8.372;2023-03-11T06:51:36;99619.00;;;3.50
20289;BMP180;10303;51.960;8.372;2023-03-11T06:54:05;99635.00;;;3.50
20289;BMP180;10303;51.960;8.372;2023-03-11T06:56:32;99639.00;;;3.60
20289;BMP180;10303;51.960;8.372;2023-03-11T06:59:02;99645.00;;;3.60
20289;BMP180;10303;51.960;8.372;2023-03-11T07:01:31;99646.00;;;3.60
20289;BMP180;10303;51.960;8.372;2023-03-11T07:03:59;99648.00;;;3.60
20289;BMP180;10303;51.960;8.372;2023-03-11T07:06:27;99658.00;;;3.60
20289;BMP180;10303;51.960;8.372;2023-03-11T07:09:01;99655.00;;;3.60
20289;BMP180;10303;51.960;8.372;2023-03-11T07:11:28;99660.00;;;3.60
20289;BMP180;10303;51.960;8.372;2023-03-11T07:14:01;99677.00;;;3.60
20289;BMP180;10303;51.960;8.372;2023-03-11T07:16:31;99672.00;;;3.60
20289;BMP180;10303;51.960;8.372;2023-03-11T07:19:03;99671.00;;;3.50
20289;BMP180;10303;51.960;8.372;2023-03-11T07:21:30;99676.00;;;3.50
20289;BMP180;10303;51.960;8.372;2023-03-11T07:23:59;99689.00;;;3.50
20289;BMP180;10303;51.960;8.372;2023-03-11T07:26:27;99693.00;;;3.50
20289;BMP180;10303;51.960;8.372;2023-03-11T07:28:54;99699.00;;;3.50
20289;BMP180;10303;51.960;8.372;2023-03-11T07:31:28;99705.00;;;3.50
20289;BMP180;10303;51.960;8.372;2023-03-11T07:33:58;99710.00;;;3.50
20289;BMP180;10303;51.960;8.372;2023-03-11T07:36:26;99718.00;;;3.60
20289;BMP180;10303;51.960;8.372;2023-03-11T07:38:59;99720.00;;;3.60
20289;BMP180;10303;51.960;8.372;2023-03-11T07:41:30;99714.00;;;3.50
20289;BMP180;10303;51.960;8.372;2023-03-11T07:43:59;99723.00;;;3.50
20289;BMP180;10303;51.960;8.372;2023-03-11T07:46:27;99738.00;;;3.50
20289;BMP180;10303;51.960;8.372;2023-03-11T07:48:54;99734.00;;;3.60
20289;BMP180;10303;51.960;8.372;2023-03-11T07:51:24;99732.00;;;3.60
20289;BMP180;10303;51.960;8.372;2023-03-11T07:53:53;99742.00;;;3.50
20289;BMP180;10303;51.960;8.372;2023-03-11T07:56:22;99747.00;;;3.50
20289;BMP180;10303;51.960;8.372;2023-03-11T07:58:49;99749.00;;;3.50
20289;BMP180;10303;51.960;8.372;2023-03-11T08:01:22;99757.00;;;3.40
20289;BMP180;10303;51.960;8.372;2023-03-11T08:03:51;99769.00;;;3.40
20289;BMP180;10303;51.960;8.372;2023-03-11T08:06:25;99760.00;;;3.50
20289;BMP180;10303;51.960;8.372;2023-03-11T08:08:52;99753.00;;;3.50
20289;BMP180;10303;51.960;8.372;2023-03-11T08:11:18;99771.00;;;3.60
20289;BMP180;10303;51.960;8.372;2023-03-11T08:13:46;99775.00;;;3.70
20289;BMP180;10303;51.960;8.372;2023-03-11T08:16:16;99789.00;;;3.70
20289;BMP180;10303;51.960;8.372;2023-03-11T08:18:43;99802.00;;;3.70
20289;BMP180;10303;51.960;8.372;2023-03-11T08:21:17;99780.00;;;3.70
20289;BMP180;10303;51.960;8.372;2023-03-11T08:23:43;99787.00;;;3.70
20289;BMP180;10303;51.960;8.372;2023-03-11T08:26:16;99794.00;;;3.80
20289;BMP180;10303;51.960;8.372;2023-03-11T08:28:43;99796.00;;;3.90
20289;BMP180;10303;51.960;8.372;2023-03-11T08:31:19;99797.00;;;3.90
20289;BMP180;10303;51.960;8.372;2023-03-11T08:33:48;99812.00;;;4.00
20289;BMP180;10303;51.960;8.372;2023-03-11T08:36:15;99809.00;;;4.00
20289;BMP180;10303;51.960;8.372;2023-03-11T08:38:41;99801.00;;;4.10
20289;BMP180;10303;51.960;8.372;2023-03-11T08:41:07;99807.00;;;4.10
20289;BMP180;10303;51.960;8.372;2023-03-11T08:43:33;99792.00;;;4.00
20289;BMP180;10303;51.960;8.372;2023-03-11T08:46:01;99797.00;;;4.10
20289;BMP180;10303;51.960;8.372;2023-03-11T08:48:27;99817.00;;;4.20
20289;BMP180;10303;51.960;8.372;2023-03-11T08:50:54;99819.00;;;4.20
20289;BMP180;10303;51.960;8.372;2023-03-11T08:53:21;99819.00;;;4.30
20289;BMP180;10303;51.960;8.372;2023-03-11T08:55:48;99825.00;;;4.50
20289;BMP180;10303;51.960;8.372;2023-03-11T08:58:14;99833.00;;;4.80
20289;BMP180;10303;51.960;8.372;2023-03-11T09:00:40;99827.00;;;4.90
20289;BMP180;10303;51.960;8.372;2023-03-11T09:03:06;99828.00;;;5.00
20289;BMP180;10303;51.960;8.372;2023-03-11T09:05:32;99831.00;;;5.20
20289;BMP180;10303;51.960;8.372;2023-03-11T09:07:58;99840.00;;;5.30
20289;BMP180;10303;51.960;8.372;2023-03-11T09:10:24;99842.00;;;5.40
20289;BMP180;10303;51.960;8.372;2023-03-11T09:12:50;99846.00;;;5.50
20289;BMP180;10303;51.960;8.372;2023-03-11T09:15:17;99851.00;;;5.50
20289;BMP180;10303;51.960;8.372;2023-03-11T09:17:43;99851.00;;;5.60
20289;BMP180;10303;51.960;8.372;2023-03-11T09:20:14;99836.00;;;5.70
20289;BMP180;10303;51.960;8.372;2023-03-11T09:22:40;99835.00;;;5.90
20289;BMP180;10303;51.960;8.372;2023-03-11T09:25:09;99856.00;;;6.10
20289;BMP180;10303;51.960;8.372;2023-03-11T09:27:37;99845.00;;;6.20
20289;BMP180;10303;51.960;8.372;2023-03-11T09:30:04;99845.00;;;6.30
20289;BMP180;10303;51.960;8.372;2023-03-11T09:32:30;99847.00;;;6.50
20289;BMP180;10303;51.960;8.372;2023-03-11T09:34:57;99847.00;;;6.70
20289;BMP180;10303;51.960;8.372;2023-03-11T09:37:25;99847.00;;;7.00
20289;BMP180;10303;51.960;8.372;2023-03-11T09:39:51;99844.00;;;7.10
20289;BMP180;10303;51.960;8.372;2023-03-11T09:43:02;99853.00;;;7.30
20289;BMP180;10303;51.960;8.372;2023-03-11T09:45:38;99846.00;;;7.50
20289;BMP180;10303;51.960;8.372;2023-03-11T09:48:24;99851.00;;;7.80
20289;BMP180;10303;51.960;8.372;2023-03-11T09:50:57;99844.00;;;7.90
20289;BMP180;10303;51.960;8.372;2023-03-11T09:53:37;99853.00;;;8.10
20289;BMP180;10303;51.960;8.372;2023-03-11T09:56:19;99858.00;;;8.30
20289;BMP180;10303;51.960;8.372;2023-03-11T09:59:03;99864.00;;;8.50
20289;BMP180;10303;51.960;8.372;2023-03-11T10:01:35;99859.00;;;8.60
20289;BMP180;10303;51.960;8.372;2023-03-11T10:04:22;99871.00;;;8.70
20289;BMP180;10303;51.960;8.372;2023-03-11T10:06:52;99863.00;;;8.80
20289;BMP180;10303;51.960;8.372;2023-03-11T10:15:21;99886.00;;;9.30
20289;BMP180;10303;51.960;8.372;2023-03-11T10:18:18;99890.00;;;9.50
20289;BMP180;10303;51.960;8.372;2023-03-11T10:24:57;99871.00;;;9.70
20289;BMP180;10303;51.960;8.372;2023-03-11T10:27:47;99881.00;;;9.90
20289;BMP180;10303;51.960;8.372;2023-03-11T10:30:30;99886.00;;;9.80
20289;BMP180;10303;51.960;8.372;2023-03-11T10:33:24;99888.00;;;9.90
20289;BMP180;10303;51.960;8.372;2023-03-11T10:36:00;99905.00;;;10.00
20289;BMP180;10303;51.960;8.372;2023-03-11T10:38:39;99902.00;;;10.20
20289;BMP180;10303;51.960;8.372;2023-03-11T10:44:33;99914.00;;;10.40
20289;BMP180;10303;51.960;8.372;2023-03-11T10:47:01;99917.00;;;10.50
20289;BMP180;10303;51.960;8.372;2023-03-11T10:49:28;99910.00;;;10.60
20289;BMP180;10303;51.960;8.372;2023-03-11T10:51:55;99901.00;;;10.60
20289;BMP180;10303;51.960;8.372;2023-03-11T10:54:45;99908.00;;;10.80
20289;BMP180;10303;51.960;8.372;2023-03-11T10:57:31;99904.00;;;10.90
20289;BMP180;10303;51.960;8.372;2023-03-11T11:00:01;99909.00;;;10.90
20289;BMP180;10303;51.960;8.372;2023-03-11T11:02:40;99898.00;;;10.60
20289;BMP180;10303;51.960;8.372;2023-03-11T11:07:47;99910.00;;;10.60
20289;BMP180;10303;51.960;8.372;2023-03-11T11:10:20;99917.00;;;10.60
20289;BMP180;10303;51.960;8.372;2023-03-11T11:12:50;99912.00;;;10.70
20289;BMP180;10303;51.960;8.372;2023-03-11T11:18:25;99911.00;;;10.00
20289;BMP180;10303;51.960;8.372;2023-03-11T11:21:03;99906.00;;;10.10
20289;BMP180;10303;51.960;8.372;2023-03-11T11:23:47;99904.00;;;10.20
20289;BMP180;10303;51.960;8.372;2023-03-11T11:26:24;99908.00;;;10.50
20289;BMP180;10303;51.960;8.372;2023-03-11T11:31:45;99910.00;;;10.80
20289;BMP180;10303;51.960;8.372;2023-03-11T11:34:31;99915.00;;;11.10
20289;BMP180;10303;51.960;8.372;2023-03-11T11:37:03;99930.00;;;11.30
20289;BMP180;10303;51.960;8.372;2023-03-11T11:39:44;99912.00;;;11.20
20289;BMP180;10303;51.960;8.372;2023-03-11T11:42:20;99917.00;;;11.10
20289;BMP180;10303;51.960;8.372;2023-03-11T11:44:53;99914.00;;;10.90
20289;BMP180;10303;51.960;8.372;2023-03-11T11:47:34;99913.00;;;10.70
20289;BMP180;10303;51.960;8.372;2023-03-11T11:50:05;99908.00;;;10.70
20289;BMP180;10303;51.960;8.372;2023-03-11T11:52:50;99905.00;;;10.80
20289;BMP180;10303;51.960;8.372;2023-03-11T11:55:25;99905.00;;;10.70
20289;BMP180;10303;51.960;8.372;2023-03-11T11:57:51;99900.00;;;10.60
20289;BMP180;10303;51.960;8.372;2023-03-11T12:00:29;99912.00;;;10.60
20289;BMP180;10303;51.960;8.372;2023-03-11T12:03:33;99911.00;;;10.60
20289;BMP180;10303;51.960;8.372;2023-03-11T12:11:56;99897.00;;;10.80
20289;BMP180;10303;51.960;8.372;2023-03-11T12:17:08;99900.00;;;11.10
20289;BMP180;10303;51.960;8.372;2023-03-11T12:19:57;99900.00;;;11.30
20289;BMP180;10303;51.960;8.372;2023-03-11T12:25:29;99908.00;;;11.80
20289;BMP180;10303;51.960;8.372;2023-03-11T12:28:17;99910.00;;;12.00
20289;BMP180;10303;51.960;8.372;2023-03-11T12:30:51;99906.00;;;12.00
20289;BMP180;10303;51.960;8.372;2023-03-11T12:33:38;99913.00;;;12.00
20289;BMP180;10303;51.960;8.372;2023-03-11T12:36:16;99915.00;;;12.00
20289;BMP180;10303;51.960;8.372;2023-03-11T12:38:47;99910.00;;;11.80
20289;BMP180;10303;51.960;8.372;2023-03-11T12:46:09;99910.00;;;11.40
20289;BMP180;10303;51.960;8.372;2023-03-11T12:48:44;99911.00;;;11.60
20289;BMP180;10303;51.960;8.372;2023-03-11T12:53:54;99897.00;;;11.80
20289;BMP180;10303;51.960;8.372;2023-03-11T12:56:37;99901.00;;;11.80
20289;BMP180;10303;51.960;8.372;2023-03-11T13:05:50;99917.00;;;12.00
20289;BMP180;10303;51.960;8.372;2023-03-11T13:16:49;99922.00;;;11.80
20289;BMP180;10303;51.960;8.372;2023-03-11T13:22:01;99921.00;;;11.70
20289;BMP180;10303;51.960;8.372;2023-03-11T13:27:10;99942.00;;;11.40
20289;BMP180;10303;51.960;8.372;2023-03-11T13:30:18;99944.00;;;11.20
20289;BMP180;10303;51.960;8.372;2023-03-11T13:41:44;99938.00;;;10.00
20289;BMP180;10303;51.960;8.372;2023-03-11T13:46:54;99941.00;;;9.90
20289;BMP180;10303;51.960;8.372;2023-03-11T13:49:49;99939.00;;;9.90
20289;BMP180;10303;51.960;8.372;2023-03-11T13:52:47;99943.00;;;9.90
20289;BMP180;10303;51.960;8.372;2023-03-11T13:55:27;99944.00;;;10.00
20289;BMP180;10303;51.960;8.372;2023-03-11T13:57:56;99938.00;;;10.20
20289;BMP180;10303;51.960;8.372;2023-03-11T14:00:27;99946.00;;;10.30
20289;BMP180;10303;51.960;8.372;2023-03-11T14:02:55;99938.00;;;10.40
20289;BMP180;10303;51.960;8.372;2023-03-11T14:05:28;99957.00;;;10.50
20289;BMP180;10303;51.960;8.372;2023-03-11T14:08:10;99946.00;;;10.40
20289;BMP180;10303;51.960;8.372;2023-03-11T14:10:37;99953.00;;;10.40
20289;BMP180;10303;51.960;8.372;2023-03-11T14:13:17;99951.00;;;10.30
20289;BMP180;10303;51.960;8.372;2023-03-11T14:18:43;99946.00;;;10.50
20289;BMP180;10303;51.960;8.372;2023-03-11T14:21:17;99953.00;;;10.60
20289;BMP180;10303;51.960;8.372;2023-03-11T14:23:48;99951.00;;;10.50
20289;BMP180;10303;51.960;8.372;2023-03-11T14:26:19;99957.00;;;10.40
20289;BMP180;10303;51.960;8.372;2023-03-11T14:28:50;99958.00;;;10.20
20289;BMP180;10303;51.960;8.372;2023-03-11T14:31:38;99961.00;;;10.10
20289;BMP180;10303;51.960;8.372;2023-03-11T14:34:18;99963.00;;;10.10
20289;BMP180;10303;51.960;8.372;2023-03-11T14:36:49;99968.00;;;10.10
20289;BMP180;10303;51.960;8.372;2023-03-11T14:39:34;99971.00;;;10.00
20289;BMP180;10303;51.960;8.372;2023-03-11T14:45:16;99968.00;;;10.00
20289;BMP180;10303;51.960;8.372;2023-03-11T14:50:28;99977.00;;;10.10
20289;BMP180;10303;51.960;8.372;2023-03-11T14:53:13;99967.00;;;10.10
20289;BMP180;10303;51.960;8.372;2023-03-11T14:55:48;99968.00;;;10.10
20289;BMP180;10303;51.960;8.372;2023-03-11T14:58:33;99976.00;;;10.20
20289;BMP180;10303;51.960;8.372;2023-03-11T15:01:16;99981.00;;;10.30
20289;BMP180;10303;51.960;8.372;2023-03-11T15:04:01;99977.00;;;10.30
20289;BMP180;10303;51.960;8.372;2023-03-11T15:06:32;99975.00;;;10.40
20289;BMP180;10303;51.960;8.372;2023-03-11T15:09:05;99975.00;;;10.50
20289;BMP180;10303;51.960;8.372;2023-03-11T15:11:52;99971.00;;;10.30
20289;BMP180;10303;51.960;8.372;2023-03-11T15:14:35;99968.00;;;10.20
20289;BMP180;10303;51.960;8.372;2023-03-11T15:17:28;99968.00;;;10.20
20289;BMP180;10303;51.960;8.372;2023-03-11T15:19:59;99969.00;;;10.20
20289;BMP180;10303;51.960;8.372;2023-03-11T15:22:39;99971.00;;;10.00
20289;BMP180;10303;51.960;8.372;2023-03-11T15:25:18;99983.00;;;9.80
20289;BMP180;10303;51.960;8.372;2023-03-11T15:27:45;99970.00;;;9.80
20289;BMP180;10303;51.960;8.372;2023-03-11T15:32:47;99961.00;;;9.80
20289;BMP180;10303;51.960;8.372;2023-03-11T15:35:19;99973.00;;;9.80
20289;BMP180;10303;51.960;8.372;2023-03-11T15:37:48;99973.00;;;9.70
20289;BMP180;10303;51.960;8.372;2023-03-11T15:40:27;99971.00;;;9.70
20289;BMP180;10303;51.960;8.372;2023-03-11T15:45:42;99972.00;;;9.40
20289;BMP180;10303;51.960;8.372;2023-03-11T15:48:12;99971.00;;;9.30
20289;BMP180;10303;51.960;8.372;2023-03-11T15:50:55;99973.00;;;9.30
20289;BMP180;10303;51.960;8.372;2023-03-11T15:53:24;99973.00;;;9.20
20289;BMP180;10303;51.960;8.372;2023-03-11T15:55:53;99979.00;;;9.20
20289;BMP180;10303;51.960;8.372;2023-03-11T15:58:20;99979.00;;;9.20
20289;BMP180;10303;51.960;8.372;2023-03-11T16:00:54;99983.00;;;9.30
20289;BMP180;10303;51.960;8.372;2023-03-11T16:03:22;99977.00;;;9.20
20289;BMP180;10303;51.960;8.372;2023-03-11T16:05:49;99981.00;;;9.30
20289;BMP180;10303;51.960;8.372;2023-03-11T16:08:15;99984.00;;;9.30
20289;BMP180;10303;51.960;8.372;2023-03-11T16:10:43;99971.00;;;9.30
20289;BMP180;10303;51.960;8.372;2023-03-11T16:13:14;99981.00;;;9.30
20289;BMP180;10303;51.960;8.372;2023-03-11T16:15:41;99972.00;;;9.40
20289;BMP180;10303;51.960;8.372;2023-03-11T16:18:08;99979.00;;;9.40